Terminal Aerodrome Forecast
Issued by NWS

Home | Current Version | Previous Version | Text Only | Print | Product List | Glossary On
Versions: 1 2 3 4 5 6 7 8 9 10 11 12 13 14 15 16 17 18 19 20 21 22 23 24 25 26
008
FTUS43 KDVN 231736
TAFBRL
TAF
KBRL 231736Z 2318/2418 33010KT P6SM VCSH OVC080
     FM231900 06012KT P6SM -RA BKN020 OVC080
     FM232200 07010KT 3SM -RA BR VCTS OVC015CB
     FM240600 08015G22KT 2SM -RA BR OVC005
     FM241700 20013G21KT P6SM BKN015=

USA.gov is the U.S. government's official web portal to all federal, state and local government web resources and services.